createdAt,value
2022-12-31T00:01:50.105Z,14.60
2022-12-31T00:04:16.996Z,14.50
2022-12-31T00:06:43.847Z,14.50
2022-12-31T00:09:10.712Z,14.50
2022-12-31T00:11:37.904Z,14.50
2022-12-31T00:14:05.584Z,14.50
2022-12-31T00:16:36.476Z,14.40
2022-12-31T00:19:03.480Z,14.40
2022-12-31T00:21:31.332Z,14.40
2022-12-31T00:23:58.269Z,14.30
2022-12-31T00:26:27.125Z,14.30
2022-12-31T00:28:54.662Z,14.20
2022-12-31T00:31:23.174Z,14.20
2022-12-31T00:33:50.040Z,14.10
2022-12-31T00:36:21.727Z,14.10
2022-12-31T00:38:50.263Z,14.00
2022-12-31T00:41:17.489Z,14.00
2022-12-31T00:43:44.338Z,13.90
2022-12-31T00:46:13.381Z,13.90
2022-12-31T00:48:40.196Z,13.90
2022-12-31T00:51:08.577Z,13.80
2022-12-31T00:53:35.420Z,13.80
2022-12-31T00:56:13.411Z,13.80
2022-12-31T00:58:40.221Z,13.80
2022-12-31T01:01:10.249Z,13.80
2022-12-31T01:03:37.201Z,13.90
2022-12-31T01:06:04.416Z,13.90
2022-12-31T01:08:31.168Z,13.90
2022-12-31T01:11:16.350Z,14.00
2022-12-31T01:13:43.140Z,14.00
2022-12-31T01:16:11.616Z,14.00
2022-12-31T01:18:38.563Z,14.00
2022-12-31T01:21:06.992Z,14.00
2022-12-31T01:23:33.873Z,14.00
2022-12-31T01:26:01.535Z,14.10
2022-12-31T01:28:28.531Z,14.10
2022-12-31T01:30:55.605Z,14.20
2022-12-31T01:33:22.456Z,14.20
2022-12-31T01:35:49.399Z,14.30
2022-12-31T01:38:16.312Z,14.30
2022-12-31T01:40:43.103Z,14.40
2022-12-31T01:43:17.692Z,14.40
2022-12-31T01:45:49.524Z,14.30
2022-12-31T01:48:20.149Z,14.20
2022-12-31T01:50:47.392Z,14.10
2022-12-31T01:53:14.134Z,14.00
2022-12-31T01:55:50.034Z,14.00
2022-12-31T01:58:26.193Z,13.90
2022-12-31T02:00:53.295Z,13.90
2022-12-31T02:03:21.541Z,13.80
2022-12-31T02:05:56.272Z,13.80
2022-12-31T02:08:23.043Z,13.80
2022-12-31T02:10:49.762Z,13.90
2022-12-31T02:13:16.542Z,13.90
2022-12-31T02:15:43.325Z,14.00
2022-12-31T02:18:35.543Z,14.00
2022-12-31T02:21:31.448Z,14.10
2022-12-31T02:24:01.040Z,14.20
2022-12-31T02:26:46.664Z,14.30
2022-12-31T02:29:31.878Z,14.30
2022-12-31T02:32:03.534Z,14.40
2022-12-31T02:34:36.915Z,14.40
2022-12-31T02:37:04.997Z,14.50
2022-12-31T02:39:31.810Z,14.50
2022-12-31T02:41:59.584Z,14.50
2022-12-31T02:44:33.012Z,14.50
2022-12-31T02:47:09.042Z,14.40
2022-12-31T02:49:57.023Z,14.40
2022-12-31T02:52:35.746Z,14.30
2022-12-31T02:55:33.279Z,14.20
2022-12-31T02:58:13.045Z,14.10
2022-12-31T03:01:04.349Z,14.00
2022-12-31T03:03:31.238Z,14.00
2022-12-31T03:05:58.131Z,13.90
2022-12-31T03:08:25.663Z,13.80
2022-12-31T03:10:52.529Z,13.80
2022-12-31T03:13:19.292Z,13.70
2022-12-31T03:15:45.999Z,13.80
2022-12-31T03:18:17.050Z,13.70
2022-12-31T03:21:07.194Z,13.80
2022-12-31T03:23:35.565Z,13.70
2022-12-31T03:26:02.670Z,13.70
2022-12-31T03:28:30.300Z,13.70
2022-12-31T03:30:59.405Z,13.70
2022-12-31T03:33:26.479Z,13.70
2022-12-31T03:35:53.465Z,13.70
2022-12-31T03:38:20.313Z,13.60
2022-12-31T03:40:51.642Z,13.60
2022-12-31T03:43:19.601Z,13.60
2022-12-31T03:45:53.078Z,13.60
2022-12-31T03:48:21.085Z,13.60
2022-12-31T03:50:47.838Z,13.50
2022-12-31T03:53:14.885Z,13.50
2022-12-31T03:55:41.709Z,13.50
2022-12-31T03:58:08.583Z,13.50
2022-12-31T04:00:35.548Z,13.50
2022-12-31T04:03:02.302Z,13.50
2022-12-31T04:05:29.144Z,13.50
2022-12-31T04:07:56.542Z,13.50
2022-12-31T04:10:23.291Z,13.50
2022-12-31T04:12:50.092Z,13.40
2022-12-31T04:15:18.823Z,13.40
2022-12-31T04:17:45.853Z,13.40
2022-12-31T04:20:12.638Z,13.40
2022-12-31T04:22:39.372Z,13.30
2022-12-31T04:25:11.223Z,13.30
2022-12-31T04:27:41.516Z,13.30
2022-12-31T04:30:08.788Z,13.30
2022-12-31T04:32:35.701Z,13.30
2022-12-31T04:35:02.513Z,13.30
2022-12-31T04:37:29.266Z,13.30
2022-12-31T04:40:00.342Z,13.30
2022-12-31T04:42:30.406Z,13.30
2022-12-31T04:44:57.184Z,13.30
2022-12-31T04:47:24.207Z,13.30
2022-12-31T04:49:51.178Z,13.20
2022-12-31T04:52:18.013Z,13.20
2022-12-31T04:54:44.797Z,13.20
2022-12-31T04:57:11.623Z,13.20
2022-12-31T04:59:38.404Z,13.20
2022-12-31T05:02:05.451Z,13.20
2022-12-31T05:04:32.424Z,13.20
2022-12-31T05:06:59.217Z,13.20
2022-12-31T05:09:27.564Z,13.20
2022-12-31T05:11:54.462Z,13.10
2022-12-31T05:14:21.277Z,13.10
2022-12-31T05:16:48.101Z,13.10
2022-12-31T05:19:15.217Z,13.10
2022-12-31T05:21:42.074Z,13.10
2022-12-31T05:24:09.441Z,13.10
2022-12-31T05:26:36.247Z,13.10
2022-12-31T05:29:02.999Z,13.20
2022-12-31T05:31:29.847Z,13.20
2022-12-31T05:33:56.863Z,13.20
2022-12-31T05:36:23.731Z,13.20
2022-12-31T05:38:50.509Z,13.20
2022-12-31T05:41:17.283Z,13.20
2022-12-31T05:43:44.059Z,13.20
2022-12-31T05:46:10.940Z,13.10
2022-12-31T05:48:37.808Z,13.10
2022-12-31T05:51:04.720Z,13.10
2022-12-31T05:53:31.529Z,13.10
2022-12-31T05:55:58.275Z,13.10
2022-12-31T05:58:25.126Z,13.10
2022-12-31T06:00:52.380Z,13.10
2022-12-31T06:03:19.191Z,13.10
2022-12-31T06:05:46.053Z,13.10
2022-12-31T06:08:12.991Z,13.10
2022-12-31T06:10:39.965Z,13.10
2022-12-31T06:13:06.943Z,13.10
2022-12-31T06:15:36.512Z,13.10
2022-12-31T06:18:03.427Z,13.10
2022-12-31T06:20:30.205Z,13.10
2022-12-31T06:22:56.908Z,13.10
2022-12-31T06:25:23.889Z,13.00
2022-12-31T06:27:50.598Z,13.00
2022-12-31T06:30:17.427Z,13.00
2022-12-31T06:32:44.244Z,13.00
2022-12-31T06:35:11.171Z,13.00
2022-12-31T06:37:37.916Z,13.00
2022-12-31T06:40:05.210Z,13.00
2022-12-31T06:42:31.988Z,13.00
2022-12-31T06:44:59.121Z,13.10
2022-12-31T06:47:26.016Z,13.10
2022-12-31T06:49:53.262Z,13.10
2022-12-31T06:52:20.486Z,13.00
2022-12-31T06:54:47.634Z,13.00
2022-12-31T06:57:14.841Z,13.00
2022-12-31T06:59:41.868Z,13.10
2022-12-31T07:02:27.003Z,13.00
2022-12-31T07:05:21.859Z,12.90
2022-12-31T07:07:50.131Z,12.70
2022-12-31T07:10:47.718Z,12.90
2022-12-31T07:13:20.410Z,13.70
2022-12-31T07:16:25.676Z,14.20
2022-12-31T07:19:12.741Z,14.80
2022-12-31T07:21:40.983Z,15.60
2022-12-31T07:24:09.045Z,16.40
2022-12-31T07:26:56.791Z,17.10
2022-12-31T07:29:26.651Z,17.50
2022-12-31T07:32:11.797Z,18.10
2022-12-31T07:35:03.622Z,18.50
2022-12-31T07:37:42.266Z,18.80
2022-12-31T07:40:27.214Z,19.10
2022-12-31T07:43:18.522Z,19.40
2022-12-31T07:46:07.445Z,19.60
2022-12-31T07:48:34.588Z,19.90
2022-12-31T07:51:01.669Z,20.30
2022-12-31T07:53:28.796Z,20.80
2022-12-31T07:55:57.531Z,20.70
2022-12-31T07:58:55.256Z,20.90
2022-12-31T08:01:42.000Z,21.00
2022-12-31T08:04:28.871Z,20.90
2022-12-31T08:07:03.907Z,21.00
2022-12-31T08:09:46.502Z,21.50
2022-12-31T08:12:14.193Z,22.00
2022-12-31T08:14:45.432Z,22.60
2022-12-31T08:17:17.044Z,22.90
2022-12-31T08:19:44.162Z,22.90
2022-12-31T08:22:14.038Z,22.60
2022-12-31T08:24:47.593Z,22.40
2022-12-31T08:27:48.312Z,22.70
2022-12-31T08:30:20.255Z,23.20
2022-12-31T08:33:07.587Z,23.60
2022-12-31T08:36:12.265Z,24.10
2022-12-31T08:38:58.112Z,24.10
2022-12-31T08:41:29.343Z,24.40
2022-12-31T08:44:27.003Z,24.80
2022-12-31T08:47:03.053Z,25.20
2022-12-31T08:49:32.174Z,25.50
2022-12-31T08:51:59.546Z,25.70
2022-12-31T08:54:26.728Z,25.50
2022-12-31T08:57:02.390Z,25.50
2022-12-31T08:59:35.186Z,25.60
2022-12-31T09:02:07.609Z,25.70
2022-12-31T09:04:59.082Z,26.00
2022-12-31T09:07:33.979Z,26.30
2022-12-31T09:10:18.990Z,26.10
2022-12-31T09:12:57.634Z,25.70
2022-12-31T09:15:33.971Z,25.70
2022-12-31T09:18:01.040Z,25.70
2022-12-31T09:20:42.927Z,25.70
2022-12-31T09:23:11.554Z,26.20
2022-12-31T09:25:43.090Z,26.60
2022-12-31T09:28:29.457Z,27.00
2022-12-31T09:31:09.796Z,26.90
2022-12-31T09:33:46.577Z,26.30
2022-12-31T09:36:36.592Z,25.60
2022-12-31T09:39:40.149Z,24.90
2022-12-31T09:42:43.052Z,25.10
2022-12-31T09:45:25.348Z,25.50
2022-12-31T09:48:25.619Z,26.10
2022-12-31T09:51:07.319Z,26.80
2022-12-31T09:53:49.116Z,27.40
2022-12-31T09:56:39.912Z,27.50
2022-12-31T09:59:13.100Z,27.70
2022-12-31T10:01:51.319Z,27.60
2022-12-31T10:04:44.147Z,27.80
2022-12-31T10:07:23.551Z,28.00
2022-12-31T10:10:05.427Z,28.30
2022-12-31T10:12:59.692Z,28.20
2022-12-31T10:15:35.402Z,28.40
2022-12-31T10:18:11.189Z,28.30
2022-12-31T10:20:46.287Z,28.30
2022-12-31T10:23:34.260Z,28.40
2022-12-31T10:26:31.537Z,28.40
2022-12-31T10:29:25.541Z,28.40
2022-12-31T10:31:58.091Z,28.40
2022-12-31T10:34:43.357Z,28.30
2022-12-31T10:37:24.179Z,28.10
2022-12-31T10:39:56.741Z,28.10
2022-12-31T10:42:30.841Z,28.30
2022-12-31T10:45:30.755Z,28.50
2022-12-31T10:48:35.911Z,28.90
2022-12-31T10:51:11.771Z,28.70
2022-12-31T10:54:09.316Z,28.50
2022-12-31T10:56:51.108Z,28.50
2022-12-31T10:59:55.432Z,28.70
2022-12-31T11:02:34.049Z,28.60
2022-12-31T11:05:43.031Z,28.50
2022-12-31T11:08:30.078Z,28.70
2022-12-31T11:11:20.770Z,28.90
2022-12-31T11:13:56.273Z,28.80
2022-12-31T11:16:34.475Z,28.70
2022-12-31T11:19:25.953Z,28.50
2022-12-31T11:21:55.419Z,28.10
2022-12-31T11:24:47.374Z,28.20
2022-12-31T11:27:36.016Z,28.10
2022-12-31T11:30:23.931Z,27.80
2022-12-31T11:33:15.066Z,27.40
2022-12-31T11:36:00.651Z,27.30
2022-12-31T11:38:33.358Z,27.10
2022-12-31T11:41:01.939Z,27.00
2022-12-31T11:43:39.561Z,26.80
2022-12-31T11:46:30.670Z,26.60
2022-12-31T11:49:31.580Z,26.50
2022-12-31T11:51:58.359Z,26.30
2022-12-31T11:54:40.394Z,26.30
2022-12-31T11:57:27.497Z,26.20
2022-12-31T11:59:59.267Z,26.10
2022-12-31T12:02:32.703Z,26.00
2022-12-31T12:05:06.535Z,25.90
2022-12-31T12:07:37.438Z,25.40
2022-12-31T12:10:14.165Z,24.80
2022-12-31T12:12:41.463Z,24.40
2022-12-31T12:15:09.705Z,24.10
2022-12-31T12:17:36.512Z,23.80
2022-12-31T12:20:16.105Z,23.60
2022-12-31T12:22:53.806Z,23.60
2022-12-31T12:25:22.671Z,23.60
2022-12-31T12:27:49.518Z,23.60
2022-12-31T12:30:26.113Z,23.60
2022-12-31T12:32:56.922Z,23.40
2022-12-31T12:35:31.897Z,23.20
2022-12-31T12:38:13.800Z,23.00
2022-12-31T12:40:40.651Z,22.90
2022-12-31T12:43:21.150Z,22.80
2022-12-31T12:45:52.150Z,22.80
2022-12-31T12:48:32.180Z,22.80
2022-12-31T12:50:58.998Z,22.80
2022-12-31T12:53:39.205Z,22.60
2022-12-31T12:56:08.929Z,22.60
2022-12-31T12:59:09.194Z,22.30
2022-12-31T13:01:56.313Z,22.20
2022-12-31T13:04:55.787Z,22.20
2022-12-31T13:07:32.955Z,22.20
2022-12-31T13:10:28.742Z,22.20
2022-12-31T13:13:26.043Z,22.20
2022-12-31T13:15:52.985Z,22.10
2022-12-31T13:18:41.691Z,22.10
2022-12-31T13:21:24.077Z,22.00
2022-12-31T13:24:02.925Z,21.90
2022-12-31T13:26:48.787Z,22.00
2022-12-31T13:29:19.729Z,22.00
2022-12-31T13:31:47.476Z,22.00
2022-12-31T13:34:18.041Z,22.10
2022-12-31T13:36:45.960Z,22.10
2022-12-31T13:39:19.038Z,22.10
2022-12-31T13:41:52.655Z,22.10
2022-12-31T13:44:44.179Z,22.00
2022-12-31T13:47:46.601Z,22.00
2022-12-31T13:50:16.196Z,21.80
2022-12-31T13:53:09.120Z,21.60
2022-12-31T13:55:41.797Z,21.50
2022-12-31T13:58:37.493Z,21.40
2022-12-31T14:01:28.224Z,21.20
2022-12-31T14:04:11.949Z,21.00
2022-12-31T14:06:50.432Z,20.90
2022-12-31T14:09:23.025Z,20.80
2022-12-31T14:11:55.791Z,20.60
2022-12-31T14:14:40.095Z,20.60
2022-12-31T14:17:33.788Z,20.50
2022-12-31T14:20:12.429Z,20.50
2022-12-31T14:23:00.433Z,20.40
2022-12-31T14:25:29.393Z,20.30
2022-12-31T14:27:56.719Z,20.30
2022-12-31T14:30:25.908Z,20.10
2022-12-31T14:33:09.757Z,20.10
2022-12-31T14:35:48.486Z,20.00
2022-12-31T14:38:33.856Z,19.90
2022-12-31T14:41:12.872Z,19.90
2022-12-31T14:43:42.527Z,19.70
2022-12-31T14:46:39.870Z,19.70
2022-12-31T14:49:31.194Z,19.60
2022-12-31T14:52:09.060Z,19.50
2022-12-31T14:54:36.844Z,19.20
2022-12-31T14:57:12.159Z,19.00
2022-12-31T14:59:40.839Z,18.90
2022-12-31T15:02:27.347Z,18.80
2022-12-31T15:05:10.149Z,18.70
2022-12-31T15:08:07.545Z,18.50
2022-12-31T15:10:37.383Z,18.40
2022-12-31T15:13:20.691Z,18.30
2022-12-31T15:16:12.369Z,18.20
2022-12-31T15:18:54.193Z,18.00
2022-12-31T15:21:32.885Z,17.90
2022-12-31T15:23:59.694Z,17.80
2022-12-31T15:26:34.657Z,17.70
2022-12-31T15:29:02.651Z,17.60
2022-12-31T15:31:29.749Z,17.40
2022-12-31T15:34:01.417Z,17.40
2022-12-31T15:36:32.834Z,17.30
2022-12-31T15:39:10.239Z,17.30
2022-12-31T15:42:10.409Z,17.10
2022-12-31T15:44:50.262Z,17.00
2022-12-31T15:47:25.895Z,16.80
2022-12-31T15:49:52.766Z,16.70
2022-12-31T15:52:30.591Z,16.70
2022-12-31T15:54:57.504Z,16.60
2022-12-31T15:57:31.254Z,16.50
2022-12-31T16:00:05.647Z,16.40
2022-12-31T16:02:32.557Z,16.40
2022-12-31T16:04:59.413Z,16.30
2022-12-31T16:07:27.395Z,16.30
2022-12-31T16:09:55.956Z,16.20
2022-12-31T16:12:29.199Z,16.10
2022-12-31T16:14:59.425Z,16.00
2022-12-31T16:17:36.126Z,16.00
2022-12-31T16:20:25.413Z,15.90
2022-12-31T16:22:56.204Z,15.80
2022-12-31T16:25:31.912Z,15.70
2022-12-31T16:27:59.516Z,15.60
2022-12-31T16:30:33.364Z,15.50
2022-12-31T16:33:02.348Z,15.40
2022-12-31T16:35:33.863Z,15.40
2022-12-31T16:38:19.146Z,15.30
2022-12-31T16:41:04.074Z,15.30
2022-12-31T16:43:38.563Z,15.20
2022-12-31T16:46:15.063Z,15.20
2022-12-31T16:48:55.921Z,15.20
2022-12-31T16:51:24.595Z,15.10
2022-12-31T16:53:51.560Z,15.10
2022-12-31T16:56:26.536Z,15.00
2022-12-31T16:58:57.793Z,15.00
2022-12-31T17:01:25.692Z,15.00
2022-12-31T17:03:59.616Z,14.90
2022-12-31T17:06:28.338Z,15.00
2022-12-31T17:08:55.525Z,15.00
2022-12-31T17:11:35.002Z,15.00
2022-12-31T17:14:07.981Z,14.80
2022-12-31T17:16:35.565Z,14.70
2022-12-31T17:19:02.349Z,14.60
2022-12-31T17:21:30.227Z,14.40
2022-12-31T17:24:02.183Z,14.30
2022-12-31T17:26:30.722Z,14.30
2022-12-31T17:28:58.061Z,14.10
2022-12-31T17:31:40.852Z,14.10
2022-12-31T17:34:13.953Z,14.00
2022-12-31T17:37:00.922Z,14.00
2022-12-31T17:39:39.105Z,14.00
2022-12-31T17:42:07.610Z,14.00
2022-12-31T17:44:34.429Z,14.10
2022-12-31T17:47:02.792Z,14.20
2022-12-31T17:49:30.996Z,14.20
2022-12-31T17:51:57.884Z,14.20
2022-12-31T17:54:24.829Z,14.20
2022-12-31T17:56:52.205Z,14.20
2022-12-31T17:59:22.985Z,14.20
2022-12-31T18:01:49.992Z,14.20
2022-12-31T18:04:17.890Z,14.10
2022-12-31T18:06:44.839Z,14.10
2022-12-31T18:09:11.915Z,14.10
2022-12-31T18:11:38.900Z,14.00
2022-12-31T18:14:07.072Z,14.00
2022-12-31T18:16:33.988Z,13.80
2022-12-31T18:19:01.087Z,13.70
2022-12-31T18:21:32.485Z,13.60
2022-12-31T18:26:25.347Z,13.40
2022-12-31T18:28:52.289Z,13.40
2022-12-31T18:31:19.695Z,13.30
2022-12-31T18:33:49.456Z,13.30
2022-12-31T18:36:17.073Z,13.30
2022-12-31T18:38:43.954Z,13.30
2022-12-31T18:41:23.179Z,13.30
2022-12-31T18:43:50.172Z,13.30
2022-12-31T18:46:18.983Z,13.20
2022-12-31T18:48:45.919Z,13.20
2022-12-31T18:51:19.865Z,13.20
2022-12-31T18:53:46.716Z,13.20
2022-12-31T18:56:15.044Z,13.20
2022-12-31T18:58:42.028Z,13.10
2022-12-31T19:01:32.442Z,13.10
2022-12-31T19:04:27.688Z,13.00
2022-12-31T19:06:55.150Z,13.00
2022-12-31T19:12:13.680Z,13.00
2022-12-31T19:14:40.498Z,13.20
2022-12-31T19:19:32.943Z,13.20
2022-12-31T19:21:59.685Z,13.20
2022-12-31T19:24:27.055Z,13.20
2022-12-31T19:26:54.194Z,13.20
2022-12-31T19:29:21.830Z,13.20
2022-12-31T19:31:48.727Z,13.20
2022-12-31T19:34:15.639Z,13.20
2022-12-31T19:36:44.295Z,13.20
2022-12-31T19:39:17.499Z,13.20
2022-12-31T19:41:44.486Z,13.20
2022-12-31T19:44:18.009Z,13.20
2022-12-31T19:46:45.127Z,13.10
2022-12-31T19:49:12.622Z,13.00
2022-12-31T19:51:39.595Z,12.90
2022-12-31T19:54:06.550Z,12.80
2022-12-31T19:56:33.343Z,12.80
2022-12-31T19:59:09.701Z,12.70
2022-12-31T20:01:36.649Z,12.70
2022-12-31T20:04:03.751Z,12.60
2022-12-31T20:06:30.601Z,12.50
2022-12-31T20:08:57.445Z,12.50
2022-12-31T20:11:24.458Z,12.50
2022-12-31T20:13:52.598Z,12.50
2022-12-31T20:16:21.002Z,12.50
2022-12-31T20:18:47.952Z,12.50
2022-12-31T20:21:17.850Z,12.50
2022-12-31T20:23:44.851Z,12.50
2022-12-31T20:26:11.789Z,12.30
2022-12-31T20:28:38.546Z,12.30
2022-12-31T20:31:15.848Z,12.10
2022-12-31T20:33:42.700Z,12.10
2022-12-31T20:36:11.133Z,12.00
2022-12-31T20:38:37.916Z,11.90
2022-12-31T20:41:18.819Z,11.80
2022-12-31T20:43:45.845Z,11.70
2022-12-31T20:46:21.180Z,11.60
2022-12-31T20:48:48.534Z,11.60
2022-12-31T20:51:15.478Z,11.40
2022-12-31T20:53:49.198Z,11.40
2022-12-31T20:56:16.317Z,11.40
2022-12-31T20:58:43.216Z,11.40
2022-12-31T21:01:10.373Z,11.40
2022-12-31T21:04:04.457Z,11.40
2022-12-31T21:06:25.107Z,11.40
2022-12-31T21:08:51.963Z,11.30
2022-12-31T21:11:37.154Z,11.40
2022-12-31T21:14:03.953Z,11.40
2022-12-31T21:16:30.705Z,11.40
2022-12-31T21:18:57.595Z,11.50
2022-12-31T21:21:24.398Z,11.50
2022-12-31T21:23:51.216Z,11.60
2022-12-31T21:26:18.033Z,11.50
2022-12-31T21:28:44.934Z,11.50
2022-12-31T21:31:13.226Z,11.50
2022-12-31T21:33:40.084Z,11.50
2022-12-31T21:36:07.112Z,11.50
2022-12-31T21:38:36.229Z,11.40
2022-12-31T21:41:04.118Z,11.30
2022-12-31T21:43:31.001Z,11.30
2022-12-31T21:46:05.020Z,11.20
2022-12-31T21:48:32.213Z,11.20
2022-12-31T21:51:09.845Z,11.20
2022-12-31T21:53:37.482Z,11.20
2022-12-31T21:56:16.092Z,11.20
2022-12-31T21:58:44.783Z,11.20
2022-12-31T22:01:40.144Z,11.10
2022-12-31T22:04:22.149Z,11.10
2022-12-31T22:06:54.899Z,10.90
2022-12-31T22:09:21.677Z,10.80
2022-12-31T22:11:48.493Z,10.80
2022-12-31T22:14:15.328Z,10.70
2022-12-31T22:16:42.228Z,10.60
2022-12-31T22:19:09.080Z,10.60
2022-12-31T22:21:35.860Z,10.60
2022-12-31T22:24:03.137Z,10.60
2022-12-31T22:26:29.935Z,10.70
2022-12-31T22:28:59.292Z,10.70
2022-12-31T22:31:28.800Z,10.60
2022-12-31T22:33:55.786Z,10.60
2022-12-31T22:36:23.149Z,10.50
2022-12-31T22:38:50.944Z,10.50
2022-12-31T22:41:21.573Z,10.50
2022-12-31T22:43:49.793Z,10.50
2022-12-31T22:46:27.358Z,10.50
2022-12-31T22:48:56.485Z,10.50
2022-12-31T22:51:23.276Z,10.50
2022-12-31T22:53:50.116Z,10.50
2022-12-31T22:56:17.729Z,10.60
2022-12-31T22:58:44.705Z,10.60
2022-12-31T23:01:19.662Z,10.60
2022-12-31T23:03:47.116Z,10.60
2022-12-31T23:06:14.257Z,10.60
2022-12-31T23:08:41.240Z,10.50
2022-12-31T23:11:09.478Z,10.40
2022-12-31T23:13:58.627Z,10.40
2022-12-31T23:16:45.150Z,10.30
2022-12-31T23:19:31.017Z,10.30
2022-12-31T23:22:16.525Z,10.30
2022-12-31T23:24:43.349Z,10.30
2022-12-31T23:27:10.280Z,10.30
2022-12-31T23:29:45.543Z,10.30
2022-12-31T23:32:14.672Z,10.30
2022-12-31T23:34:42.296Z,10.30
2022-12-31T23:37:09.086Z,10.30
2022-12-31T23:39:35.911Z,10.30
2022-12-31T23:42:02.715Z,10.30
2022-12-31T23:44:29.632Z,10.30
2022-12-31T23:46:56.588Z,10.30
2022-12-31T23:49:23.584Z,10.20
2022-12-31T23:51:50.378Z,10.20
2022-12-31T23:54:17.845Z,10.20
2022-12-31T23:56:44.635Z,10.20
2022-12-31T23:59:11.751Z,10.20
